createdAt,value
2022-08-26T00:01:06.310Z,35.20
2022-08-26T00:03:08.484Z,24.23
2022-08-26T00:05:11.098Z,27.43
2022-08-26T00:07:13.015Z,36.03
2022-08-26T00:09:16.004Z,17.30
2022-08-26T00:11:26.513Z,20.47
2022-08-26T00:13:29.316Z,28.43
2022-08-26T00:15:31.381Z,21.53
2022-08-26T00:17:33.295Z,23.80
2022-08-26T00:19:35.213Z,22.33
2022-08-26T00:21:37.600Z,22.93
2022-08-26T00:23:40.737Z,26.83
2022-08-26T00:25:42.960Z,28.73
2022-08-26T00:27:45.377Z,22.57
2022-08-26T00:29:47.288Z,24.23
2022-08-26T00:31:49.660Z,38.30
2022-08-26T00:33:51.570Z,26.00
2022-08-26T00:35:53.619Z,28.67
2022-08-26T00:37:56.199Z,28.57
2022-08-26T00:39:58.611Z,32.57
2022-08-26T00:42:02.948Z,21.37
2022-08-26T00:44:05.644Z,32.33
2022-08-26T00:46:12.355Z,29.20
2022-08-26T00:48:16.718Z,25.73
2022-08-26T00:50:22.986Z,25.60
2022-08-26T00:52:26.039Z,22.60
2022-08-26T00:54:30.551Z,24.47
2022-08-26T00:56:38.136Z,27.63
2022-08-26T00:58:43.127Z,30.63
2022-08-26T01:00:45.577Z,29.37
2022-08-26T01:02:48.954Z,24.67
2022-08-26T01:04:56.124Z,29.23
2022-08-26T01:06:58.194Z,28.40
2022-08-26T01:09:00.155Z,36.70
2022-08-26T01:11:02.633Z,25.60
2022-08-26T01:13:10.238Z,29.07
2022-08-26T01:15:18.042Z,24.80
2022-08-26T01:17:20.030Z,23.33
2022-08-26T01:19:26.502Z,27.07
2022-08-26T01:21:36.400Z,25.83
2022-08-26T01:23:45.446Z,26.27
2022-08-26T01:25:52.298Z,24.03
2022-08-26T01:27:57.830Z,28.70
2022-08-26T01:30:00.468Z,26.57
2022-08-26T01:32:03.200Z,22.93
2022-08-26T01:34:20.706Z,19.10
2022-08-26T01:36:22.981Z,19.73
2022-08-26T01:38:25.522Z,20.93
2022-08-26T01:40:37.249Z,19.23
2022-08-26T01:42:41.311Z,22.03
2022-08-26T01:44:51.060Z,18.47
2022-08-26T01:46:53.759Z,19.87
2022-08-26T01:48:57.581Z,17.87
2022-08-26T01:51:01.211Z,20.90
2022-08-26T01:53:06.923Z,20.27
2022-08-26T01:55:09.427Z,21.30
2022-08-26T01:57:11.346Z,21.83
2022-08-26T01:59:15.189Z,20.70
2022-08-26T02:01:20.191Z,24.10
2022-08-26T02:03:24.232Z,25.47
2022-08-26T02:05:26.224Z,22.03
2022-08-26T02:07:28.776Z,26.30
2022-08-26T02:09:30.857Z,30.00
2022-08-26T02:11:33.847Z,26.83
2022-08-26T02:13:42.397Z,20.70
2022-08-26T02:15:44.704Z,22.83
2022-08-26T02:17:47.686Z,19.80
2022-08-26T02:19:50.172Z,17.23
2022-08-26T02:21:53.168Z,19.23
2022-08-26T02:23:56.163Z,20.63
2022-08-26T02:26:16.300Z,36.80
2022-08-26T02:28:20.221Z,29.80
2022-08-26T02:30:28.079Z,20.20
2022-08-26T02:32:30.113Z,22.50
2022-08-26T02:34:32.953Z,25.87
2022-08-26T02:36:34.853Z,25.40
2022-08-26T02:38:37.029Z,19.43
2022-08-26T02:40:42.157Z,22.43
2022-08-26T02:42:44.112Z,17.87
2022-08-26T02:44:46.172Z,23.80
2022-08-26T02:46:48.349Z,20.30
2022-08-26T02:48:51.111Z,25.80
2022-08-26T02:50:53.114Z,22.60
2022-08-26T02:52:55.484Z,20.43
2022-08-26T02:54:57.517Z,25.10
2022-08-26T02:56:59.531Z,21.17
2022-08-26T02:59:02.097Z,20.00
2022-08-26T03:01:04.903Z,17.97
2022-08-26T03:03:08.205Z,24.60
2022-08-26T03:05:12.108Z,23.03
2022-08-26T03:07:14.336Z,24.27
2022-08-26T03:09:18.908Z,17.47
2022-08-26T03:11:20.988Z,21.00
2022-08-26T03:13:23.747Z,26.67
2022-08-26T03:15:26.283Z,17.07
2022-08-26T03:17:28.296Z,19.90
2022-08-26T03:19:32.107Z,21.37
2022-08-26T03:21:38.137Z,23.87
2022-08-26T03:23:40.784Z,19.40
2022-08-26T03:25:42.771Z,18.87
2022-08-26T03:27:45.081Z,19.07
2022-08-26T03:30:06.536Z,19.23
2022-08-26T03:32:09.358Z,23.40
2022-08-26T03:34:13.000Z,20.43
2022-08-26T03:36:15.384Z,20.70
2022-08-26T03:38:21.528Z,20.57
2022-08-26T03:40:23.748Z,18.87
2022-08-26T03:42:31.104Z,23.43
2022-08-26T03:44:33.056Z,17.53
2022-08-26T03:46:35.201Z,20.37
2022-08-26T03:48:38.013Z,22.00
2022-08-26T03:50:40.462Z,25.27
2022-08-26T03:52:44.008Z,17.50
2022-08-26T03:54:46.182Z,20.90
2022-08-26T03:56:49.225Z,26.30
2022-08-26T03:58:51.179Z,25.57
2022-08-26T04:00:55.714Z,20.17
2022-08-26T04:02:57.989Z,24.57
2022-08-26T04:05:00.206Z,20.93
2022-08-26T04:07:02.145Z,24.57
2022-08-26T04:09:07.982Z,16.97
2022-08-26T04:11:16.699Z,18.43
2022-08-26T04:13:18.893Z,19.93
2022-08-26T04:15:21.790Z,21.03
2022-08-26T04:17:25.826Z,22.90
2022-08-26T04:19:27.815Z,21.17
2022-08-26T04:21:29.808Z,18.83
2022-08-26T04:23:31.979Z,27.67
2022-08-26T04:25:49.349Z,23.17
2022-08-26T04:27:52.221Z,18.10
2022-08-26T04:29:55.417Z,17.07
2022-08-26T04:31:57.693Z,27.93
2022-08-26T04:33:59.721Z,21.93
2022-08-26T04:36:03.498Z,23.40
2022-08-26T04:38:06.085Z,21.57
2022-08-26T04:40:10.433Z,22.77
2022-08-26T04:42:13.439Z,20.57
2022-08-26T04:44:16.484Z,18.90
2022-08-26T04:46:25.463Z,20.80
2022-08-26T04:48:31.980Z,18.10
2022-08-26T04:50:34.181Z,22.40
2022-08-26T04:52:36.814Z,22.97
2022-08-26T04:54:38.870Z,23.30
2022-08-26T04:56:45.418Z,27.17
2022-08-26T04:58:48.541Z,22.07
2022-08-26T05:00:52.258Z,22.93
2022-08-26T05:02:55.700Z,23.73
2022-08-26T05:04:58.420Z,23.63
2022-08-26T05:07:02.586Z,19.90
2022-08-26T05:09:05.804Z,25.63
2022-08-26T05:11:09.449Z,25.50
2022-08-26T05:13:15.454Z,19.33
2022-08-26T05:15:17.902Z,23.10
2022-08-26T05:17:20.591Z,18.23
2022-08-26T05:19:23.705Z,21.40
2022-08-26T05:21:27.191Z,24.83
2022-08-26T05:23:31.438Z,19.77
2022-08-26T05:25:43.345Z,26.20
2022-08-26T05:27:45.438Z,22.37
2022-08-26T05:29:48.256Z,20.73
2022-08-26T05:31:56.555Z,34.20
2022-08-26T05:33:59.834Z,29.60
2022-08-26T05:36:09.301Z,26.43
2022-08-26T05:38:14.473Z,24.20
2022-08-26T05:40:16.750Z,29.23
2022-08-26T05:42:21.966Z,29.10
2022-08-26T05:44:24.487Z,27.60
2022-08-26T05:46:29.662Z,26.97
2022-08-26T05:48:31.688Z,22.40
2022-08-26T05:50:41.586Z,20.87
2022-08-26T05:52:44.918Z,24.73
2022-08-26T05:54:47.777Z,25.00
2022-08-26T05:56:51.472Z,23.90
2022-08-26T05:58:54.377Z,37.10
2022-08-26T06:01:10.366Z,26.33
2022-08-26T06:03:13.585Z,31.20
2022-08-26T06:05:15.895Z,23.37
2022-08-26T06:07:18.518Z,24.27
2022-08-26T06:09:20.603Z,30.07
2022-08-26T06:11:25.478Z,19.80
2022-08-26T06:13:31.922Z,22.23
2022-08-26T06:15:35.544Z,28.93
2022-08-26T06:17:37.592Z,30.60
2022-08-26T06:19:41.403Z,29.47
2022-08-26T06:21:46.807Z,27.23
2022-08-26T06:24:09.709Z,25.13
2022-08-26T06:26:12.776Z,26.33
2022-08-26T06:28:15.304Z,24.93
2022-08-26T06:30:17.494Z,25.73
2022-08-26T06:32:20.645Z,27.40
2022-08-26T06:34:23.249Z,18.93
2022-08-26T06:36:32.503Z,21.13
2022-08-26T06:38:35.192Z,19.87
2022-08-26T06:40:45.439Z,25.37
2022-08-26T06:42:47.440Z,24.87
2022-08-26T06:44:49.421Z,21.03
2022-08-26T06:46:51.560Z,25.87
2022-08-26T06:48:54.580Z,26.17
2022-08-26T06:51:07.586Z,20.20
2022-08-26T06:53:10.608Z,22.30
2022-08-26T06:55:12.662Z,26.10
2022-08-26T06:57:14.669Z,27.57
2022-08-26T06:59:18.830Z,24.63
2022-08-26T07:01:24.399Z,35.27
2022-08-26T07:03:26.408Z,28.17
2022-08-26T07:05:28.555Z,22.53
2022-08-26T07:07:31.651Z,24.47
2022-08-26T07:09:35.345Z,27.27
2022-08-26T07:11:39.560Z,31.87
2022-08-26T07:13:41.623Z,24.73
2022-08-26T07:15:45.190Z,19.33
2022-08-26T07:17:47.310Z,25.60
2022-08-26T07:19:49.498Z,22.13
2022-08-26T07:21:51.563Z,23.87
2022-08-26T07:23:58.706Z,32.90
2022-08-26T07:26:07.960Z,30.27
2022-08-26T07:28:09.966Z,29.73
2022-08-26T07:30:14.912Z,30.97
2022-08-26T07:32:19.625Z,31.70
2022-08-26T07:34:22.957Z,30.83
2022-08-26T07:36:24.951Z,29.37
2022-08-26T07:38:27.129Z,24.67
2022-08-26T07:40:29.369Z,26.50
2022-08-26T07:42:31.399Z,27.53
2022-08-26T07:44:33.405Z,24.33
2022-08-26T07:46:35.437Z,26.93
2022-08-26T07:48:37.721Z,32.30
2022-08-26T07:50:50.116Z,26.60
2022-08-26T07:52:52.678Z,29.80
2022-08-26T07:54:58.129Z,26.13
2022-08-26T07:57:00.260Z,28.60
2022-08-26T07:59:02.366Z,22.17
2022-08-26T08:01:05.628Z,26.47
2022-08-26T08:03:09.897Z,31.73
2022-08-26T08:05:14.612Z,23.50
2022-08-26T08:07:19.174Z,27.90
2022-08-26T08:09:22.417Z,30.30
2022-08-26T08:11:27.194Z,35.53
2022-08-26T08:13:29.352Z,30.83
2022-08-26T08:15:33.181Z,35.03
2022-08-26T08:17:37.503Z,27.30
2022-08-26T08:19:40.608Z,31.20
2022-08-26T08:21:43.792Z,28.37
2022-08-26T08:23:45.793Z,30.00
2022-08-26T08:25:49.189Z,22.17
2022-08-26T08:27:51.148Z,27.40
2022-08-26T08:29:55.347Z,36.63
2022-08-26T08:31:58.485Z,32.20
2022-08-26T08:34:01.981Z,36.53
2022-08-26T08:36:06.184Z,27.70
2022-08-26T08:38:11.296Z,32.80
2022-08-26T08:40:18.220Z,34.50
2022-08-26T08:42:42.884Z,36.13
2022-08-26T08:44:51.894Z,27.57
2022-08-26T08:46:58.064Z,29.63
2022-08-26T08:49:00.470Z,30.67
2022-08-26T08:51:18.024Z,22.87
2022-08-26T08:53:29.758Z,27.20
2022-08-26T08:55:42.001Z,29.23
2022-08-26T08:58:03.804Z,23.93
2022-08-26T09:00:12.421Z,28.47
2022-08-26T09:02:24.368Z,34.10
2022-08-26T09:04:29.357Z,22.97
2022-08-26T09:06:31.385Z,24.50
2022-08-26T09:08:35.835Z,29.07
2022-08-26T09:10:44.594Z,27.70
2022-08-26T09:12:47.764Z,32.37
2022-08-26T09:14:51.126Z,24.67
2022-08-26T09:17:01.247Z,24.87
2022-08-26T09:19:19.137Z,27.40
2022-08-26T09:21:25.876Z,23.87
2022-08-26T09:23:28.215Z,24.50
2022-08-26T09:25:30.663Z,24.50
2022-08-26T09:27:50.565Z,28.30
2022-08-26T09:29:52.802Z,30.57
2022-08-26T09:32:22.090Z,31.50
2022-08-26T09:34:28.044Z,26.97
2022-08-26T09:36:41.112Z,26.97
2022-08-26T09:38:44.232Z,36.73
2022-08-26T09:41:00.508Z,26.30
2022-08-26T09:43:22.192Z,32.73
2022-08-26T09:45:28.461Z,24.33
2022-08-26T09:47:47.192Z,25.73
2022-08-26T09:50:12.605Z,28.67
2022-08-26T09:52:16.706Z,21.40
2022-08-26T09:54:30.376Z,30.60
2022-08-26T09:56:36.987Z,21.63
2022-08-26T09:58:41.958Z,20.43
2022-08-26T10:00:55.562Z,24.03
2022-08-26T10:02:59.741Z,30.43
2022-08-26T10:05:09.029Z,31.23
2022-08-26T10:07:11.736Z,33.03
2022-08-26T10:09:17.503Z,31.50
2022-08-26T10:11:37.550Z,24.77
2022-08-26T10:13:44.636Z,32.67
2022-08-26T10:16:14.577Z,23.07
2022-08-26T10:18:30.718Z,25.50
2022-08-26T10:20:38.690Z,20.03
2022-08-26T10:22:47.267Z,20.17
2022-08-26T10:24:56.439Z,24.83
2022-08-26T10:27:03.246Z,23.27
2022-08-26T10:29:16.807Z,21.40
2022-08-26T10:31:28.240Z,31.63
2022-08-26T10:33:30.528Z,24.47
2022-08-26T10:35:36.343Z,23.13
2022-08-26T10:37:43.992Z,24.53
2022-08-26T10:39:49.162Z,21.57
2022-08-26T10:41:59.217Z,24.40
2022-08-26T10:44:02.254Z,29.93
2022-08-26T10:46:10.750Z,22.73
2022-08-26T10:48:19.299Z,20.93
2022-08-26T10:50:37.298Z,18.87
2022-08-26T10:53:01.648Z,29.63
2022-08-26T10:55:16.318Z,29.33
2022-08-26T10:57:40.250Z,24.20
2022-08-26T11:00:22.059Z,22.03
2022-08-26T11:02:47.055Z,21.17
2022-08-26T11:04:58.623Z,37.37
2022-08-26T11:07:32.004Z,24.17
2022-08-26T11:09:52.200Z,23.50
2022-08-26T11:11:54.382Z,21.80
2022-08-26T11:13:56.420Z,24.07
2022-08-26T11:15:59.508Z,24.10
2022-08-26T11:18:08.251Z,27.07
2022-08-26T11:20:23.899Z,22.23
2022-08-26T11:22:38.034Z,26.03
2022-08-26T11:24:52.915Z,22.13
2022-08-26T11:26:56.679Z,19.33
2022-08-26T11:28:58.942Z,20.00
2022-08-26T11:31:08.716Z,32.23
2022-08-26T11:33:11.810Z,24.57
2022-08-26T11:35:17.007Z,36.10
2022-08-26T11:39:54.828Z,30.03
2022-08-26T11:42:03.542Z,26.63
2022-08-26T11:44:09.274Z,24.03
2022-08-26T11:46:12.535Z,22.93
2022-08-26T11:48:26.491Z,21.60
2022-08-26T11:50:28.975Z,24.23
2022-08-26T11:52:32.359Z,27.60
2022-08-26T11:54:35.635Z,27.73
2022-08-26T11:56:40.032Z,29.17
2022-08-26T11:58:44.313Z,21.57
2022-08-26T12:00:46.378Z,23.87
2022-08-26T12:02:49.140Z,18.83
2022-08-26T12:04:52.200Z,27.53
2022-08-26T12:06:55.019Z,25.90
2022-08-26T12:09:00.066Z,29.50
2022-08-26T12:11:10.194Z,21.77
2022-08-26T12:13:26.550Z,25.43
2022-08-26T12:15:31.080Z,30.40
2022-08-26T12:17:33.358Z,22.70
2022-08-26T12:19:35.531Z,24.80
2022-08-26T12:21:37.746Z,21.93
2022-08-26T12:23:44.105Z,24.63
2022-08-26T12:25:46.907Z,32.13
2022-08-26T12:27:53.671Z,30.13
2022-08-26T12:30:12.273Z,26.27
2022-08-26T12:32:18.410Z,30.33
2022-08-26T12:34:20.679Z,25.87
2022-08-26T12:36:28.601Z,19.20
2022-08-26T12:38:32.289Z,18.60
2022-08-26T12:40:41.038Z,22.03
2022-08-26T12:42:43.295Z,20.67
2022-08-26T12:45:03.609Z,14.57
2022-08-26T12:47:12.603Z,15.07
2022-08-26T12:49:18.440Z,15.57
2022-08-26T12:51:26.027Z,18.50
2022-08-26T12:53:30.563Z,8.97
2022-08-26T12:55:32.683Z,6.70
2022-08-26T12:57:36.907Z,10.03
2022-08-26T12:59:39.449Z,7.97
2022-08-26T13:01:44.464Z,11.20
2022-08-26T13:03:46.745Z,15.80
2022-08-26T13:05:49.580Z,13.00
2022-08-26T13:08:12.123Z,10.67
2022-08-26T13:10:35.601Z,16.07
2022-08-26T13:12:38.274Z,15.33
2022-08-26T13:14:40.583Z,9.40
2022-08-26T13:16:43.539Z,14.83
2022-08-26T13:18:51.190Z,18.10
2022-08-26T13:20:53.774Z,14.13
2022-08-26T13:22:59.069Z,19.07
2022-08-26T13:25:01.680Z,22.67
2022-08-26T13:27:06.162Z,13.63
2022-08-26T13:29:10.498Z,15.30
2022-08-26T13:31:15.094Z,14.37
2022-08-26T13:33:21.444Z,16.90
2022-08-26T13:35:23.633Z,13.53
2022-08-26T13:37:35.078Z,17.13
2022-08-26T13:39:38.262Z,13.70
2022-08-26T13:41:40.476Z,9.70
2022-08-26T13:43:43.005Z,10.33
2022-08-26T13:45:45.190Z,11.90
2022-08-26T13:47:47.658Z,7.07
2022-08-26T13:49:50.405Z,6.83
2022-08-26T13:51:52.632Z,17.00
2022-08-26T13:53:54.987Z,15.00
2022-08-26T13:55:58.899Z,10.07
2022-08-26T13:58:01.118Z,10.53
2022-08-26T14:00:04.579Z,8.87
2022-08-26T14:02:11.275Z,12.20
2022-08-26T14:04:13.550Z,9.57
2022-08-26T14:06:16.489Z,12.80
2022-08-26T14:08:18.670Z,15.10
2022-08-26T14:10:20.965Z,9.90
2022-08-26T14:12:23.986Z,11.03
2022-08-26T14:14:26.167Z,12.70
2022-08-26T14:16:33.491Z,8.33
2022-08-26T14:18:41.847Z,9.77
2022-08-26T14:20:50.430Z,9.43
2022-08-26T14:23:12.659Z,8.90
2022-08-26T14:25:15.241Z,13.97
2022-08-26T14:27:17.557Z,7.60
2022-08-26T14:29:19.729Z,15.07
2022-08-26T14:31:23.914Z,8.80
2022-08-26T14:33:28.224Z,15.07
2022-08-26T14:35:31.187Z,10.30
2022-08-26T14:37:33.417Z,9.90
2022-08-26T14:39:35.912Z,12.60
2022-08-26T14:41:54.616Z,13.87
2022-08-26T14:44:09.300Z,9.60
2022-08-26T14:46:11.611Z,15.27
2022-08-26T14:48:14.160Z,16.20
2022-08-26T14:50:18.905Z,12.20
2022-08-26T14:52:21.503Z,11.00
2022-08-26T14:54:23.800Z,18.97
2022-08-26T14:56:26.187Z,18.13
2022-08-26T14:58:34.959Z,15.60
2022-08-26T15:00:38.277Z,16.40
2022-08-26T15:02:41.242Z,17.63
2022-08-26T15:04:43.649Z,11.60
2022-08-26T15:06:46.289Z,19.37
2022-08-26T15:08:48.392Z,16.23
2022-08-26T15:10:50.814Z,17.27
2022-08-26T15:12:53.028Z,14.37
2022-08-26T15:14:55.214Z,20.27
2022-08-26T15:16:57.765Z,12.50
2022-08-26T15:19:00.315Z,12.07
2022-08-26T15:21:04.017Z,18.07
2022-08-26T15:23:07.414Z,16.73
2022-08-26T15:25:10.310Z,17.60
2022-08-26T15:27:12.575Z,11.90
2022-08-26T15:29:14.833Z,15.20
2022-08-26T15:31:17.531Z,12.17
2022-08-26T15:33:19.765Z,13.70
2022-08-26T15:35:22.027Z,15.73
2022-08-26T15:37:24.202Z,13.17
2022-08-26T15:39:26.349Z,24.83
2022-08-26T15:41:29.506Z,14.10
2022-08-26T15:43:32.007Z,11.70
2022-08-26T15:45:34.203Z,15.67
2022-08-26T15:47:55.409Z,9.23
2022-08-26T15:49:58.561Z,14.47
2022-08-26T15:52:04.243Z,16.23
2022-08-26T15:54:08.466Z,12.80
2022-08-26T15:56:13.099Z,13.90
2022-08-26T15:58:15.932Z,14.30
2022-08-26T16:00:18.732Z,14.17
2022-08-26T16:02:21.546Z,9.60
2022-08-26T16:04:23.871Z,15.40
2022-08-26T16:06:29.055Z,16.40
2022-08-26T16:08:36.403Z,14.37
2022-08-26T16:10:41.492Z,15.90
2022-08-26T16:12:43.683Z,15.27
2022-08-26T16:14:45.865Z,14.50
2022-08-26T16:16:48.348Z,10.23
2022-08-26T16:18:50.543Z,14.17
2022-08-26T16:21:12.948Z,17.13
2022-08-26T16:23:16.290Z,18.87
2022-08-26T16:25:18.482Z,10.90
2022-08-26T16:27:20.814Z,13.27
2022-08-26T16:29:25.471Z,20.23
2022-08-26T16:31:27.737Z,16.60
2022-08-26T16:33:30.029Z,13.77
2022-08-26T16:35:32.198Z,16.57
2022-08-26T16:37:36.501Z,15.00
2022-08-26T16:39:44.904Z,16.30
2022-08-26T16:41:47.464Z,13.97
2022-08-26T16:43:49.895Z,14.80
2022-08-26T16:45:52.069Z,20.07
2022-08-26T16:47:55.268Z,14.27
2022-08-26T16:49:57.416Z,16.20
2022-08-26T16:51:59.615Z,16.17
2022-08-26T16:54:02.451Z,15.60
2022-08-26T16:56:04.823Z,12.10
2022-08-26T16:58:07.014Z,14.57
2022-08-26T17:00:14.295Z,14.67
2022-08-26T17:02:16.538Z,15.33
2022-08-26T17:04:19.833Z,14.50
2022-08-26T17:06:22.040Z,11.30
2022-08-26T17:08:28.834Z,21.13
2022-08-26T17:10:32.916Z,15.40
2022-08-26T17:12:36.301Z,15.57
2022-08-26T17:14:38.492Z,14.50
2022-08-26T17:16:41.414Z,12.47
2022-08-26T17:18:43.694Z,12.40
2022-08-26T17:20:46.008Z,13.70
2022-08-26T17:22:49.679Z,13.63
2022-08-26T17:24:51.915Z,12.80
2022-08-26T17:26:55.493Z,15.77
2022-08-26T17:28:58.654Z,9.20
2022-08-26T17:31:01.332Z,15.40
2022-08-26T17:33:10.971Z,17.13
2022-08-26T17:35:14.242Z,16.93
2022-08-26T17:37:16.843Z,12.50
2022-08-26T17:39:18.979Z,9.83
2022-08-26T17:41:21.143Z,11.50
2022-08-26T17:43:26.774Z,16.40
2022-08-26T17:45:28.968Z,18.73
2022-08-26T17:47:31.751Z,13.57
2022-08-26T17:49:35.525Z,13.40
2022-08-26T17:51:37.675Z,19.33
2022-08-26T17:53:41.298Z,13.87
2022-08-26T17:55:45.189Z,20.07
2022-08-26T17:57:53.107Z,11.93
2022-08-26T17:59:55.865Z,16.00
2022-08-26T18:01:58.986Z,18.57
2022-08-26T18:04:01.723Z,13.57
2022-08-26T18:06:08.946Z,16.20
2022-08-26T18:08:11.134Z,10.80
2022-08-26T18:10:16.532Z,14.20
2022-08-26T18:12:18.661Z,14.27
2022-08-26T18:14:21.761Z,13.70
2022-08-26T18:16:24.474Z,20.03
2022-08-26T18:18:26.661Z,11.73
2022-08-26T18:20:28.792Z,12.60
2022-08-26T18:22:30.927Z,14.17
2022-08-26T18:24:34.783Z,10.70
2022-08-26T18:26:39.278Z,14.73
2022-08-26T18:28:41.387Z,12.37
2022-08-26T18:30:44.149Z,16.37
2022-08-26T18:32:50.296Z,21.53
2022-08-26T18:34:52.576Z,17.00
2022-08-26T18:36:54.733Z,16.03
2022-08-26T18:38:57.529Z,16.93
2022-08-26T18:40:59.750Z,16.17
2022-08-26T18:43:02.507Z,16.47
2022-08-26T18:45:06.266Z,20.60
2022-08-26T18:47:08.410Z,18.20
2022-08-26T18:49:13.111Z,16.17
2022-08-26T18:51:29.613Z,24.10
2022-08-26T18:53:32.318Z,20.43
2022-08-26T18:55:36.672Z,24.73
2022-08-26T18:57:38.843Z,26.03
2022-08-26T18:59:41.196Z,18.03
2022-08-26T19:01:43.675Z,16.70
2022-08-26T19:03:46.902Z,16.47
2022-08-26T19:05:49.085Z,18.83
2022-08-26T19:07:51.217Z,22.93
2022-08-26T19:09:54.129Z,16.70
2022-08-26T19:14:04.408Z,23.23
2022-08-26T19:16:06.652Z,17.60
2022-08-26T19:18:09.814Z,22.83
2022-08-26T19:20:11.994Z,15.90
2022-08-26T19:22:14.220Z,17.77
2022-08-26T19:24:17.600Z,14.30
2022-08-26T19:26:19.846Z,18.57
2022-08-26T19:28:22.065Z,21.73
2022-08-26T19:30:24.440Z,22.37
2022-08-26T19:32:30.203Z,21.20
2022-08-26T19:34:32.367Z,19.77
2022-08-26T19:36:34.814Z,20.90
2022-08-26T19:38:37.122Z,18.27
2022-08-26T19:40:39.829Z,24.23
2022-08-26T19:42:41.995Z,20.40
2022-08-26T19:45:03.016Z,19.50
2022-08-26T19:47:07.271Z,19.47
2022-08-26T19:49:09.532Z,22.53
2022-08-26T19:51:13.655Z,23.20
2022-08-26T19:53:16.393Z,19.13
2022-08-26T19:55:19.702Z,19.23
2022-08-26T19:57:21.833Z,24.43
2022-08-26T19:59:24.367Z,25.63
2022-08-26T20:01:26.558Z,26.30
2022-08-26T20:03:28.960Z,20.73
2022-08-26T20:05:31.091Z,22.43
2022-08-26T20:07:33.595Z,20.83
2022-08-26T20:09:36.268Z,18.50
2022-08-26T20:11:38.400Z,21.20
2022-08-26T20:13:40.899Z,19.63
2022-08-26T20:15:43.182Z,17.27
2022-08-26T20:17:45.551Z,20.57
2022-08-26T20:20:26.887Z,22.80
2022-08-26T20:22:32.907Z,18.57
2022-08-26T20:24:35.636Z,25.40
2022-08-26T20:26:39.173Z,20.60
2022-08-26T20:28:41.353Z,22.73
2022-08-26T20:30:43.521Z,22.63
2022-08-26T20:32:45.799Z,17.57
2022-08-26T20:34:49.364Z,18.93
2022-08-26T20:36:52.309Z,22.10
2022-08-26T20:38:55.904Z,23.30
2022-08-26T20:40:58.081Z,19.00
2022-08-26T20:43:00.258Z,22.57
2022-08-26T20:45:03.304Z,21.70
2022-08-26T20:47:05.776Z,28.27
2022-08-26T20:49:08.329Z,30.73
2022-08-26T20:51:10.730Z,21.90
2022-08-26T20:53:13.396Z,26.03
2022-08-26T20:55:15.639Z,21.47
2022-08-26T20:57:17.976Z,21.00
2022-08-26T20:59:20.911Z,20.80
2022-08-26T21:01:30.646Z,24.17
2022-08-26T21:03:33.352Z,20.97
2022-08-26T21:05:35.754Z,20.40
2022-08-26T21:07:38.329Z,24.93
2022-08-26T21:09:40.592Z,20.73
2022-08-26T21:11:45.284Z,28.63
2022-08-26T21:16:09.675Z,21.50
2022-08-26T21:18:12.079Z,27.13
2022-08-26T21:20:14.878Z,21.63
2022-08-26T21:22:17.083Z,31.73
2022-08-26T21:24:19.417Z,29.60
2022-08-26T21:26:21.813Z,23.53
2022-08-26T21:28:23.946Z,22.53
2022-08-26T21:30:26.168Z,17.70
2022-08-26T21:32:28.735Z,26.40
2022-08-26T21:34:31.051Z,24.17
2022-08-26T21:36:33.186Z,22.13
2022-08-26T21:38:36.611Z,21.90
2022-08-26T21:40:38.808Z,29.37
2022-08-26T21:42:41.026Z,28.27
2022-08-26T21:44:44.846Z,22.17
2022-08-26T21:46:53.774Z,26.60
2022-08-26T21:49:02.542Z,29.40
2022-08-26T21:51:08.487Z,28.17
2022-08-26T21:53:13.532Z,18.43
2022-08-26T21:55:15.750Z,20.43
2022-08-26T21:57:18.416Z,24.73
2022-08-26T21:59:20.580Z,22.27
2022-08-26T22:01:24.405Z,22.47
2022-08-26T22:03:26.798Z,23.40
2022-08-26T22:05:28.994Z,29.10
2022-08-26T22:07:31.261Z,28.57
2022-08-26T22:09:33.433Z,24.43
2022-08-26T22:11:35.691Z,24.60
2022-08-26T22:13:39.345Z,24.90
2022-08-26T22:15:42.156Z,21.20
2022-08-26T22:17:44.317Z,20.73
2022-08-26T22:19:46.800Z,21.53
2022-08-26T22:21:50.758Z,21.80
2022-08-26T22:23:57.881Z,19.07
2022-08-26T22:26:00.680Z,26.80
2022-08-26T22:28:03.757Z,21.90
2022-08-26T22:30:06.860Z,22.63
2022-08-26T22:32:13.975Z,22.37
2022-08-26T22:34:17.447Z,23.47
2022-08-26T22:36:22.308Z,22.50
2022-08-26T22:38:24.827Z,25.83
2022-08-26T22:40:27.157Z,26.50
2022-08-26T22:42:29.581Z,27.13
2022-08-26T22:44:32.619Z,21.73
2022-08-26T22:46:36.796Z,24.17
2022-08-26T22:48:39.224Z,18.27
2022-08-26T22:50:42.716Z,26.20
2022-08-26T22:52:44.965Z,17.07
2022-08-26T22:54:47.609Z,23.53
2022-08-26T22:56:56.819Z,18.83
2022-08-26T22:59:07.985Z,22.90
2022-08-26T23:01:16.586Z,22.20
2022-08-26T23:03:28.334Z,26.93
2022-08-26T23:05:45.371Z,24.57
2022-08-26T23:07:56.949Z,24.17
2022-08-26T23:10:08.590Z,21.70
2022-08-26T23:12:11.207Z,21.03
2022-08-26T23:14:13.381Z,21.47
2022-08-26T23:16:15.496Z,18.27
2022-08-26T23:18:17.530Z,23.53
2022-08-26T23:20:19.770Z,25.93
2022-08-26T23:22:21.862Z,22.20
2022-08-26T23:24:24.016Z,21.97
2022-08-26T23:26:26.096Z,24.57
2022-08-26T23:28:28.174Z,26.13
2022-08-26T23:30:31.920Z,26.13
2022-08-26T23:32:34.287Z,25.80
2022-08-26T23:34:54.965Z,25.20
2022-08-26T23:36:57.913Z,23.87
2022-08-26T23:39:00.358Z,23.93
2022-08-26T23:41:02.343Z,22.90
2022-08-26T23:43:06.755Z,31.43
2022-08-26T23:45:10.512Z,21.47
2022-08-26T23:47:13.479Z,27.50
2022-08-26T23:49:15.593Z,21.90
2022-08-26T23:51:36.426Z,21.33
2022-08-26T23:53:39.033Z,28.63
2022-08-26T23:55:41.018Z,21.23
2022-08-26T23:57:43.029Z,25.00
2022-08-26T23:59:45.480Z,24.50
